createdAt,value
2022-12-25T00:01:24.506Z,39.30
2022-12-25T00:06:26.448Z,36.00
2022-12-25T00:11:28.373Z,39.00
2022-12-25T00:16:31.232Z,36.70
2022-12-25T00:21:33.376Z,35.80
2022-12-25T00:26:35.358Z,35.20
2022-12-25T00:31:37.391Z,32.80
2022-12-25T00:36:41.902Z,33.80
2022-12-25T00:42:03.266Z,34.60
2022-12-25T00:47:05.339Z,39.90
2022-12-25T00:52:07.886Z,38.00
2022-12-25T00:57:09.909Z,51.60
2022-12-25T01:06:13.017Z,49.60
2022-12-25T01:11:15.007Z,45.80
2022-12-25T01:16:17.812Z,44.40
2022-12-25T01:21:21.342Z,48.50
2022-12-25T01:26:25.997Z,40.30
2022-12-25T01:31:27.904Z,44.20
2022-12-25T01:36:30.052Z,50.00
2022-12-25T01:41:32.195Z,38.10
2022-12-25T01:46:35.402Z,47.30
2022-12-25T01:51:48.480Z,46.00
2022-12-25T01:56:53.536Z,53.00
2022-12-25T02:01:57.254Z,47.40
2022-12-25T02:06:59.447Z,44.50
2022-12-25T02:12:01.671Z,50.20
2022-12-25T02:17:29.928Z,55.40
2022-12-25T02:23:01.497Z,57.40
2022-12-25T02:34:02.904Z,59.40
2022-12-25T02:39:31.387Z,68.30
2022-12-25T02:44:55.101Z,73.20
2022-12-25T02:50:18.360Z,69.80
2022-12-25T02:55:44.881Z,81.00
2022-12-25T03:01:11.625Z,75.30
2022-12-25T03:06:34.440Z,72.90
2022-12-25T03:11:36.440Z,77.90
2022-12-25T03:16:50.639Z,65.10
2022-12-25T03:22:13.259Z,72.80
2022-12-25T03:27:15.658Z,65.60
2022-12-25T03:32:34.044Z,68.90
2022-12-25T03:38:09.744Z,65.90
2022-12-25T03:43:48.668Z,66.40
2022-12-25T03:49:21.811Z,74.30
2022-12-25T03:54:46.826Z,64.70
2022-12-25T04:00:07.443Z,57.00
2022-12-25T04:05:29.730Z,61.20
2022-12-25T04:10:50.701Z,64.90
2022-12-25T04:16:12.422Z,76.80
2022-12-25T04:21:33.481Z,71.80
2022-12-25T04:26:54.158Z,72.00
2022-12-25T04:32:14.707Z,66.90
2022-12-25T04:37:16.730Z,65.30
2022-12-25T04:42:18.834Z,64.70
2022-12-25T04:47:20.791Z,62.60
2022-12-25T04:52:22.768Z,59.50
2022-12-25T04:57:24.719Z,56.10
2022-12-25T05:02:26.820Z,49.90
2022-12-25T05:07:28.991Z,47.40
2022-12-25T05:12:30.996Z,48.60
2022-12-25T05:17:32.953Z,53.80
2022-12-25T05:22:34.984Z,52.20
2022-12-25T05:27:36.963Z,51.20
2022-12-25T05:32:39.082Z,50.90
2022-12-25T05:37:41.140Z,45.00
2022-12-25T05:42:43.204Z,46.40
2022-12-25T05:47:49.061Z,53.50
2022-12-25T05:52:51.053Z,49.70
2022-12-25T05:57:53.000Z,52.70
2022-12-25T06:02:55.070Z,58.60
2022-12-25T06:07:57.264Z,51.20
2022-12-25T06:12:59.443Z,54.50
2022-12-25T06:18:01.842Z,54.90
2022-12-25T06:23:03.928Z,54.40
2022-12-25T06:28:06.830Z,65.30
2022-12-25T06:33:08.801Z,65.60
2022-12-25T06:38:10.801Z,68.50
2022-12-25T06:43:12.837Z,68.00
2022-12-25T06:48:14.759Z,65.60
2022-12-25T06:53:16.834Z,72.30
2022-12-25T06:58:18.737Z,72.80
2022-12-25T07:03:22.159Z,75.70
2022-12-25T07:08:24.125Z,69.90
2022-12-25T07:13:26.346Z,69.30
2022-12-25T07:18:29.529Z,71.70
2022-12-25T07:23:31.540Z,63.70
2022-12-25T07:28:34.045Z,66.50
2022-12-25T07:33:36.508Z,67.80
2022-12-25T07:38:38.496Z,74.70
2022-12-25T07:43:40.777Z,56.10
2022-12-25T07:48:42.873Z,65.90
2022-12-25T07:53:45.042Z,67.30
2022-12-25T07:58:47.248Z,70.10
2022-12-25T08:03:51.487Z,75.20
2022-12-25T08:08:53.435Z,74.90
2022-12-25T08:13:56.483Z,84.00
2022-12-25T08:18:58.355Z,73.70
2022-12-25T08:24:00.474Z,76.80
2022-12-25T08:29:02.539Z,75.20
2022-12-25T08:34:04.942Z,77.70
2022-12-25T08:39:07.526Z,81.10
2022-12-25T08:44:12.021Z,69.30
2022-12-25T08:49:13.796Z,69.10
2022-12-25T08:54:15.830Z,65.00
2022-12-25T08:59:17.755Z,70.20
2022-12-25T09:04:19.661Z,63.70
2022-12-25T09:09:26.416Z,66.40
2022-12-25T09:14:28.563Z,62.20
2022-12-25T09:19:31.030Z,61.10
2022-12-25T09:24:33.033Z,66.70
2022-12-25T09:29:35.004Z,66.30
2022-12-25T09:34:36.952Z,63.30
2022-12-25T09:39:43.974Z,69.20
2022-12-25T09:45:15.259Z,69.90
2022-12-25T09:50:23.740Z,67.50
2022-12-25T09:55:29.347Z,71.40
2022-12-25T10:00:38.199Z,69.10
2022-12-25T10:05:59.080Z,56.60
2022-12-25T10:11:46.752Z,57.60
2022-12-25T10:16:48.721Z,60.50
2022-12-25T10:21:58.779Z,48.00
2022-12-25T10:27:05.438Z,55.50
2022-12-25T10:32:10.311Z,49.80
2022-12-25T10:37:12.684Z,48.80
2022-12-25T10:42:34.585Z,36.70
2022-12-25T10:47:42.776Z,38.10
2022-12-25T10:52:52.003Z,38.60
2022-12-25T10:57:54.278Z,35.80
2022-12-25T11:02:57.032Z,39.60
2022-12-25T11:08:01.731Z,32.70
2022-12-25T11:13:08.057Z,35.80
2022-12-25T11:18:27.522Z,30.70
2022-12-25T11:23:32.593Z,37.40
2022-12-25T11:28:37.691Z,42.20
2022-12-25T11:33:53.888Z,40.10
2022-12-25T11:38:59.515Z,31.20
2022-12-25T11:44:10.869Z,31.00
2022-12-25T11:49:18.138Z,27.70
2022-12-25T11:54:26.567Z,28.60
2022-12-25T11:59:38.724Z,27.00
2022-12-25T12:04:44.745Z,28.10
2022-12-25T12:10:02.140Z,26.20
2022-12-25T12:15:14.123Z,18.90
2022-12-25T12:20:34.537Z,21.40
2022-12-25T12:25:40.995Z,18.40
2022-12-25T12:30:42.963Z,27.50
2022-12-25T12:35:45.394Z,27.00
2022-12-25T12:40:56.032Z,25.60
2022-12-25T12:46:07.142Z,28.20
2022-12-25T12:51:26.311Z,28.10
2022-12-25T12:56:28.217Z,23.50
2022-12-25T13:01:39.286Z,23.10
2022-12-25T13:06:51.837Z,24.80
2022-12-25T13:11:55.062Z,30.70
2022-12-25T13:16:56.999Z,24.20
2022-12-25T13:22:01.758Z,29.70
2022-12-25T13:27:23.331Z,32.60
2022-12-25T13:37:32.039Z,31.80
2022-12-25T13:42:37.682Z,36.50
2022-12-25T13:47:48.676Z,30.00
2022-12-25T13:52:56.246Z,34.50
2022-12-25T13:58:04.523Z,33.80
2022-12-25T14:03:07.947Z,39.40
2022-12-25T14:08:19.317Z,29.40
2022-12-25T14:13:26.944Z,28.20
2022-12-25T14:18:30.894Z,31.90
2022-12-25T14:23:45.960Z,27.70
2022-12-25T14:28:50.749Z,32.70
2022-12-25T14:33:54.178Z,34.40
2022-12-25T14:39:02.001Z,36.30
2022-12-25T14:44:25.002Z,42.80
2022-12-25T14:49:32.373Z,37.00
2022-12-25T14:54:34.321Z,37.70
2022-12-25T14:59:36.157Z,34.00
2022-12-25T15:04:37.957Z,40.80
2022-12-25T15:09:40.673Z,46.00
2022-12-25T15:14:42.480Z,44.60
2022-12-25T15:19:44.480Z,52.00
2022-12-25T15:24:46.708Z,76.20
2022-12-25T15:40:17.610Z,60.00
2022-12-25T15:45:28.131Z,54.20
2022-12-25T15:50:30.322Z,55.10
2022-12-25T15:55:32.337Z,62.30
2022-12-25T16:00:34.280Z,80.90
2022-12-25T16:05:36.248Z,66.00
2022-12-25T16:10:39.141Z,72.10
2022-12-25T16:15:42.596Z,89.40
2022-12-25T16:20:44.609Z,80.70
2022-12-25T16:25:46.965Z,65.30
2022-12-25T16:30:49.906Z,49.80
2022-12-25T16:35:52.705Z,61.80
2022-12-25T16:40:57.398Z,137.00
2022-12-25T16:45:59.641Z,114.70
2022-12-25T16:51:08.553Z,94.50
2022-12-25T16:56:14.834Z,94.80
2022-12-25T17:01:19.500Z,118.20
2022-12-25T17:06:25.910Z,158.50
2022-12-25T17:11:30.204Z,198.50
2022-12-25T17:16:36.865Z,241.60
2022-12-25T17:21:38.868Z,207.60
2022-12-25T17:26:41.702Z,205.30
2022-12-25T17:31:44.952Z,196.60
2022-12-25T17:36:47.880Z,168.90
2022-12-25T17:41:50.953Z,147.80
2022-12-25T17:46:53.042Z,167.80
2022-12-25T17:51:55.144Z,142.10
2022-12-25T17:56:57.363Z,200.60
2022-12-25T18:01:59.408Z,176.30
2022-12-25T18:07:03.387Z,185.10
2022-12-25T18:12:06.035Z,148.70
2022-12-25T18:17:08.060Z,185.10
2022-12-25T18:22:10.031Z,231.30
2022-12-25T18:27:12.086Z,157.20
2022-12-25T18:32:14.219Z,177.70
2022-12-25T18:37:16.251Z,197.60
2022-12-25T18:42:36.672Z,216.50
2022-12-25T18:47:39.460Z,171.00
2022-12-25T18:52:48.165Z,177.50
2022-12-25T18:57:53.538Z,157.10
2022-12-25T19:02:58.497Z,160.60
2022-12-25T19:08:00.589Z,180.90
2022-12-25T19:13:02.988Z,233.30
2022-12-25T19:18:05.281Z,167.90
2022-12-25T19:23:08.734Z,196.80
2022-12-25T19:28:11.619Z,190.80
2022-12-25T19:33:17.650Z,191.80
2022-12-25T19:38:20.567Z,201.20
2022-12-25T19:43:22.614Z,226.80
2022-12-25T19:48:24.982Z,260.90
2022-12-25T19:53:28.925Z,226.10
2022-12-25T19:58:30.906Z,197.20
2022-12-25T20:03:38.827Z,211.20
2022-12-25T20:08:51.693Z,301.20
2022-12-25T20:13:54.145Z,308.10
2022-12-25T20:18:59.051Z,379.50
2022-12-25T20:24:01.036Z,208.20
2022-12-25T20:29:04.244Z,178.00
2022-12-25T20:34:09.566Z,221.70
2022-12-25T20:39:12.972Z,194.60
2022-12-25T20:44:15.122Z,192.70
2022-12-25T20:49:18.738Z,177.60
2022-12-25T20:54:20.800Z,179.50
2022-12-25T20:59:22.849Z,162.00
2022-12-25T21:04:25.511Z,199.10
2022-12-25T21:09:27.274Z,185.00
2022-12-25T21:14:29.645Z,161.60
2022-12-25T21:19:31.659Z,166.90
2022-12-25T21:24:33.472Z,202.20
2022-12-25T21:29:35.450Z,197.70
2022-12-25T21:34:37.767Z,193.50
2022-12-25T21:39:39.782Z,195.50
2022-12-25T21:44:42.143Z,230.30
2022-12-25T21:50:03.049Z,185.40
2022-12-25T21:55:06.112Z,198.70
2022-12-25T22:00:09.132Z,211.00
2022-12-25T22:05:31.084Z,197.80
2022-12-25T22:10:36.443Z,251.10
2022-12-25T22:15:57.105Z,219.10
2022-12-25T22:20:59.695Z,265.70
2022-12-25T22:26:05.062Z,267.70
2022-12-25T22:31:09.099Z,278.00
2022-12-25T22:36:13.456Z,280.60
2022-12-25T22:41:15.438Z,288.00
2022-12-25T22:46:17.409Z,290.20
2022-12-25T22:51:19.442Z,271.00
2022-12-25T22:56:21.495Z,271.50
2022-12-25T23:01:23.364Z,293.30
2022-12-25T23:06:25.213Z,270.20
2022-12-25T23:11:27.679Z,254.20
2022-12-25T23:16:29.993Z,252.80
2022-12-25T23:21:50.958Z,247.00
2022-12-25T23:26:52.894Z,267.50
2022-12-25T23:36:15.406Z,347.20
2022-12-25T23:41:17.377Z,330.10
2022-12-25T23:46:19.693Z,340.00
2022-12-25T23:51:21.871Z,345.80
2022-12-25T23:56:23.890Z,362.20
